Time;durP1;ratioP1;P1;durP2;ratioP2;P2;SDS_P1;SDS_P2;PMS_P1;PMS_P2;Temp;Humidity;BMP_temperature;BMP_pressure;BME280_temperature;BME280_humidity;BME280_pressure;Samples;Min_cycle;Max_cycle;Signal;HPM_P1;HPM_P2
2022/12/10 00:01:23;;;;;;;17.13;10.38;;;12.00;59.60;;;;;;5051410;28;20037;-77
2022/12/10 00:03:49;;;;;;;18.40;11.02;;;12.00;59.60;;;;;;5051562;28;20017;-77
2022/12/10 00:06:18;;;;;;;18.60;10.60;;;12.00;59.50;;;;;;5051399;28;20504;-77
2022/12/10 00:08:43;;;;;;;15.73;9.98;;;12.00;59.60;;;;;;5051303;28;20071;-77
2022/12/10 00:11:11;;;;;;;16.83;10.65;;;12.00;59.50;;;;;;5051319;28;20029;-77
2022/12/10 00:13:37;;;;;;;19.70;11.40;;;12.00;59.60;;;;;;5051267;28;20059;-77
2022/12/10 00:16:05;;;;;;;16.83;9.73;;;12.00;59.60;;;;;;5051174;28;20036;-77
2022/12/10 00:18:31;;;;;;;17.23;10.65;;;11.90;59.60;;;;;;5052379;28;20144;-77
2022/12/10 00:20:56;;;;;;;15.73;10.43;;;11.90;59.70;;;;;;5052459;28;20116;-77
2022/12/10 00:23:22;;;;;;;16.83;9.93;;;11.90;59.60;;;;;;5052496;28;20577;-77
2022/12/10 00:25:48;;;;;;;16.70;10.23;;;11.90;59.60;;;;;;5050958;28;20675;-77
2022/12/10 00:28:13;;;;;;;17.33;10.48;;;11.90;59.60;;;;;;5052257;28;20503;-77
2022/12/10 00:30:39;;;;;;;18.15;11.25;;;11.90;59.50;;;;;;5050860;28;20071;-77
2022/12/10 00:33:05;;;;;;;20.30;11.57;;;11.90;59.50;;;;;;5051043;28;20522;-77
2022/12/10 00:35:31;;;;;;;17.52;10.77;;;11.90;59.50;;;;;;5052232;28;20051;-77
2022/12/10 00:37:56;;;;;;;18.58;11.10;;;11.90;59.60;;;;;;5052240;28;20489;-77
2022/12/10 00:40:23;;;;;;;18.63;11.05;;;11.90;59.60;;;;;;5052178;28;20112;-77
2022/12/10 00:42:48;;;;;;;21.83;12.30;;;11.80;59.60;;;;;;5051656;28;20025;-77
2022/12/10 00:45:14;;;;;;;19.80;11.65;;;11.80;59.60;;;;;;5050874;28;20047;-77
2022/12/10 00:47:39;;;;;;;21.85;12.27;;;11.90;59.60;;;;;;5050861;28;20021;-77
2022/12/10 00:50:05;;;;;;;20.15;12.00;;;11.80;59.60;;;;;;5052119;28;20056;-77
2022/12/10 00:52:31;;;;;;;21.23;12.63;;;11.80;59.50;;;;;;5051947;28;20021;-77
2022/12/10 00:54:56;;;;;;;21.60;12.10;;;11.80;59.60;;;;;;5052131;28;20021;-77
2022/12/10 00:57:22;;;;;;;19.88;12.10;;;11.80;59.60;;;;;;5052006;28;20119;-77
2022/12/10 00:59:48;;;;;;;24.92;13.02;;;11.80;59.60;;;;;;5051972;28;20028;-76
2022/12/10 01:02:13;;;;;;;20.70;11.90;;;11.80;59.60;;;;;;5052007;28;20033;-76
2022/12/10 01:04:39;;;;;;;22.45;12.35;;;11.80;59.60;;;;;;5051904;28;20090;-76
2022/12/10 01:07:04;;;;;;;26.00;13.15;;;11.80;59.60;;;;;;5051981;28;20384;-76
2022/12/10 01:09:30;;;;;;;24.10;13.10;;;11.80;59.60;;;;;;5050688;28;20507;-76
2022/12/10 01:11:59;;;;;;;23.95;13.27;;;11.70;59.60;;;;;;5051880;28;20017;-77
2022/12/10 01:14:34;;;;;;;24.02;12.43;;;11.70;59.60;;;;;;5051909;28;20040;-76
2022/12/10 01:17:02;;;;;;;22.23;12.50;;;11.80;59.60;;;;;;5050735;28;20020;-77
2022/12/10 01:19:29;;;;;;;24.48;13.65;;;11.70;59.60;;;;;;5051955;28;20028;-77
2022/12/10 01:21:55;;;;;;;24.80;14.13;;;11.70;59.60;;;;;;5050496;28;20029;-77
2022/12/10 01:24:22;;;;;;;24.60;13.95;;;11.70;59.60;;;;;;5052121;28;20029;-77
2022/12/10 01:26:48;;;;;;;21.92;12.48;;;11.70;59.60;;;;;;5050340;28;20141;-77
2022/12/10 01:29:14;;;;;;;24.98;13.60;;;11.70;59.60;;;;;;5052044;28;20103;-77
2022/12/10 01:31:41;;;;;;;25.42;13.68;;;11.70;59.60;;;;;;5051687;28;20078;-77
2022/12/10 01:34:11;;;;;;;25.60;14.18;;;12.00;75.30;;;;;;5051651;28;20044;-77
2022/12/10 01:36:38;;;;;;;;;;;11.70;59.60;;;;;;5052150;28;20530;-77
2022/12/10 01:39:06;;;;;;;22.38;12.57;;;11.70;59.60;;;;;;5051887;28;19909;-77
2022/12/10 01:41:35;;;;;;;22.92;12.93;;;11.70;59.60;;;;;;5050312;28;20060;-77
2022/12/10 01:44:00;;;;;;;23.13;13.80;;;11.60;59.60;;;;;;5051547;28;20048;-77
2022/12/10 01:46:33;;;;;;;24.50;14.00;;;11.60;59.60;;;;;;5051574;28;20029;-77
2022/12/10 01:49:01;;;;;;;25.08;13.85;;;11.60;59.60;;;;;;5050185;28;20021;-77
2022/12/10 01:51:30;;;;;;;20.77;12.40;;;11.60;59.70;;;;;;5050237;28;20048;-77
2022/12/10 01:53:56;;;;;;;24.17;14.35;;;11.60;59.80;;;;;;5051761;28;20025;-77
2022/12/10 01:56:22;;;;;;;26.13;15.05;;;11.60;59.80;;;;;;5052665;28;20107;-77
2022/12/10 01:58:51;;;;;;;25.23;15.00;;;11.60;59.70;;;;;;5054995;28;20029;-77
2022/12/10 02:01:55;;;;;;;24.02;13.07;;;11.60;59.60;;;;;;5055041;28;20033;-77
2022/12/10 02:04:45;;;;;;;25.25;14.27;;;11.60;59.60;;;;;;5050001;28;20033;-77
2022/12/10 02:07:31;;;;;;;22.13;13.18;;;11.60;59.50;;;;;;5053616;28;20025;-77
2022/12/10 02:10:25;;;;;;;22.95;13.27;;;11.60;59.60;;;;;;5053562;28;20422;-77
2022/12/10 02:12:59;;;;;;;22.52;14.00;;;11.50;59.60;;;;;;5053612;28;20025;-77
2022/12/10 02:15:30;;;;;;;23.17;14.27;;;11.50;59.60;;;;;;5054793;28;20035;-77
2022/12/10 02:18:02;;;;;;;23.95;14.10;;;11.50;59.60;;;;;;5053450;28;20018;-77
2022/12/10 02:20:33;;;;;;;23.73;13.77;;;11.50;59.70;;;;;;5053379;28;20617;-77
2022/12/10 02:23:11;;;;;;;24.35;14.75;;;11.50;59.60;;;;;;5053379;28;20171;-77
2022/12/10 02:25:57;;;;;;;23.70;14.13;;;11.50;60.20;;;;;;5054484;28;20028;-77
2022/12/10 02:28:44;;;;;;;23.45;12.88;;;11.50;59.70;;;;;;5054568;28;20056;-77
2022/12/10 02:31:14;;;;;;;23.25;13.68;;;11.50;59.70;;;;;;5053251;28;20025;-80
2022/12/10 02:33:45;;;;;;;24.42;13.60;;;11.50;59.70;;;;;;5053276;28;20025;-79
2022/12/10 02:36:12;;;;;;;22.77;13.68;;;11.50;59.70;;;;;;5054426;28;20017;-79
2022/12/10 02:38:41;;;;;;;21.95;12.98;;;11.50;59.20;;;;;;5054464;28;20029;-80
2022/12/10 02:41:31;;;;;;;22.13;13.35;;;11.50;59.70;;;;;;5054232;28;20045;-79
2022/12/10 02:43:59;;;;;;;21.20;13.13;;;11.40;59.60;;;;;;5054341;28;20051;-80
2022/12/10 02:46:29;;;;;;;19.20;12.63;;;11.40;59.70;;;;;;5054230;28;20108;-79
2022/12/10 02:48:56;;;;;;;22.33;13.82;;;11.40;59.70;;;;;;5054299;28;20025;-79
2022/12/10 02:51:22;;;;;;;20.13;12.90;;;11.40;59.80;;;;;;5054440;28;20036;-80
2022/12/10 02:53:47;;;;;;;23.25;14.13;;;11.40;59.80;;;;;;5054061;28;20029;-79
2022/12/10 02:56:35;;;;;;;22.15;13.70;;;11.40;59.80;;;;;;5052617;28;20102;-80
2022/12/10 02:59:26;;;;;;;23.40;14.18;;;11.40;59.70;;;;;;5052721;28;20052;-79
2022/12/10 03:02:15;;;;;;;23.02;14.00;;;11.40;59.70;;;;;;5050573;28;20041;-80
2022/12/10 03:04:47;;;;;;;21.88;12.90;;;11.40;59.80;;;;;;5052622;28;20062;-79
2022/12/10 03:07:20;;;;;;;23.00;12.98;;;11.40;59.80;;;;;;5052134;28;20087;-78
2022/12/10 03:09:52;;;;;;;20.40;12.35;;;11.40;59.70;;;;;;5052642;28;20093;-79
2022/12/10 03:12:37;;;;;;;18.00;11.13;;;11.30;59.80;;;;;;5053692;28;20040;-79
2022/12/10 03:15:08;;;;;;;21.13;12.73;;;11.30;59.70;;;;;;5052367;28;20021;-79
2022/12/10 03:17:36;;;;;;;19.13;11.60;;;11.30;59.80;;;;;;5053625;28;20395;-79
2022/12/10 03:20:03;;;;;;;19.13;12.32;;;11.30;59.70;;;;;;5052554;28;20032;-80
2022/12/10 03:22:31;;;;;;;17.63;11.40;;;11.30;59.70;;;;;;5053455;28;20044;-79
2022/12/10 03:24:59;;;;;;;18.75;12.43;;;11.30;59.70;;;;;;5053557;28;20375;-80
2022/12/10 03:27:29;;;;;;;17.70;11.52;;;11.30;59.70;;;;;;5051970;28;20051;-79
2022/12/10 03:29:57;;;;;;;16.30;11.15;;;11.40;74.70;;;;;;5053309;28;20058;-79
2022/12/10 03:32:27;;;;;;;18.50;11.25;;;11.30;59.70;;;;;;5053266;28;20113;-79
2022/12/10 03:34:55;;;;;;;19.42;12.65;;;11.30;59.70;;;;;;5053264;28;20025;-80
2022/12/10 03:37:22;;;;;;;15.48;10.27;;;11.20;59.20;;;;;;5051824;28;20383;-79
2022/12/10 03:39:49;;;;;;;19.30;11.85;;;11.20;59.80;;;;;;5053101;28;20021;-79
2022/12/10 03:42:14;;;;;;;16.52;11.02;;;11.20;59.80;;;;;;5053062;28;20377;-80
2022/12/10 03:44:41;;;;;;;16.63;10.30;;;11.20;59.90;;;;;;5051825;28;20067;-80
2022/12/10 03:47:10;;;;;;;16.38;10.65;;;11.20;59.70;;;;;;5053031;28;20533;-80
2022/12/10 03:49:35;;;;;;;16.80;11.10;;;11.20;59.70;;;;;;5052929;28;20124;-80
2022/12/10 03:52:01;;;;;;;16.52;10.88;;;11.20;59.90;;;;;;5052887;28;20036;-80
2022/12/10 03:54:26;;;;;;;17.50;10.90;;;11.20;59.70;;;;;;5052725;28;20083;-80
2022/12/10 03:56:52;;;;;;;15.35;10.48;;;11.20;59.80;;;;;;5052887;28;20040;-80
2022/12/10 03:59:18;;;;;;;17.48;10.32;;;11.20;59.90;;;;;;5052760;28;20087;-79
2022/12/10 04:01:44;;;;;;;14.80;10.18;;;11.10;59.70;;;;;;5051429;28;20029;-80
2022/12/10 04:04:10;;;;;;;16.25;10.02;;;11.20;59.70;;;;;;5052922;28;20025;-79
2022/12/10 04:06:38;;;;;;;14.50;9.43;;;11.10;59.60;;;;;;5052655;28;20037;-79
2022/12/10 04:09:04;;;;;;;12.57;8.90;;;11.10;59.60;;;;;;5051467;28;20021;-79
2022/12/10 04:11:29;;;;;;;13.73;9.35;;;11.20;59.80;;;;;;5052629;28;20375;-79
2022/12/10 04:16:39;;;;;;;13.45;9.23;;;11.10;59.80;;;;;;5052864;28;20177;-79
2022/12/10 04:19:08;;;;;;;14.63;8.73;;;11.10;59.70;;;;;;5052347;28;20055;-79
2022/12/10 04:27:16;;;;;;;13.35;9.20;;;11.10;59.60;;;;;;5052403;28;20090;-79
2022/12/10 04:29:42;;;;;;;13.02;8.60;;;11.10;59.70;;;;;;5052641;28;20021;-79
2022/12/10 04:32:07;;;;;;;11.30;7.28;;;11.10;59.70;;;;;;5051003;28;20434;-80
2022/12/10 04:34:33;;;;;;;11.15;7.80;;;11.00;59.60;;;;;;5050942;28;20039;-79
2022/12/10 04:37:00;;;;;;;12.48;8.40;;;11.00;59.60;;;;;;5052320;28;20029;-80
2022/12/10 04:39:25;;;;;;;12.90;8.15;;;11.10;59.70;;;;;;5052285;28;20392;-79
2022/12/10 04:41:51;;;;;;;11.70;7.80;;;11.00;59.60;;;;;;5050854;28;20044;-79
2022/12/10 04:44:17;;;;;;;12.10;8.23;;;11.00;59.60;;;;;;5050920;28;20025;-79
2022/12/10 04:46:44;;;;;;;10.18;7.65;;;11.00;60.10;;;;;;5052153;28;20032;-80
2022/12/10 04:49:09;;;;;;;12.13;7.80;;;11.00;59.80;;;;;;5050888;28;20012;-80
2022/12/10 04:51:35;;;;;;;12.70;8.18;;;11.00;59.60;;;;;;5050855;28;20650;-79
2022/12/10 04:54:01;;;;;;;11.75;7.85;;;11.00;59.60;;;;;;5052368;28;20041;-79
2022/12/10 04:56:27;;;;;;;12.13;7.45;;;11.00;59.60;;;;;;5050885;28;20032;-79
2022/12/10 04:58:55;;;;;;;10.77;7.25;;;11.00;59.70;;;;;;5052111;28;20411;-80
2022/12/10 05:01:21;;;;;;;10.82;7.45;;;11.00;59.70;;;;;;5051905;28;20102;-79
2022/12/10 05:03:46;;;;;;;10.10;7.45;;;11.00;59.70;;;;;;5051984;28;20025;-80
2022/12/10 05:06:14;;;;;;;11.35;7.85;;;11.00;59.60;;;;;;5050742;28;20033;-80
2022/12/10 05:08:41;;;;;;;10.13;7.07;;;10.90;59.60;;;;;;5052150;28;20025;-80
2022/12/10 05:11:10;;;;;;;8.98;6.93;;;10.90;59.60;;;;;;5051912;28;20033;-79
2022/12/10 05:13:37;;;;;;;10.27;7.40;;;10.90;59.60;;;;;;5051883;28;20025;-80
2022/12/10 05:16:04;;;;;;;9.07;6.55;;;10.90;59.70;;;;;;5052010;28;20292;-80
2022/12/10 05:18:30;;;;;;;8.82;7.15;;;10.90;59.60;;;;;;5050662;28;20166;-77
2022/12/10 05:21:00;;;;;;;11.43;7.10;;;11.00;59.70;;;;;;5051721;28;20663;-76
2022/12/10 05:23:29;;;;;;;8.63;6.28;;;10.90;59.70;;;;;;5051900;28;20070;-77
2022/12/10 05:26:02;;;;;;;8.75;6.78;;;10.90;59.70;;;;;;5051771;28;20148;-77
2022/12/10 05:28:30;;;;;;;9.40;6.97;;;10.90;59.70;;;;;;5051922;28;20387;-77
2022/12/10 05:30:56;;;;;;;9.80;6.85;;;10.90;59.70;;;;;;5055227;28;20025;-77
2022/12/10 05:33:22;;;;;;;9.25;6.22;;;;;;;;;;5054427;28;20032;-77
2022/12/10 05:36:02;;;;;;;8.45;6.38;;;10.80;59.30;;;;;;5055596;28;20044;-77
2022/12/10 05:38:30;;;;;;;10.02;7.20;;;10.80;60.40;;;;;;5055591;28;20025;-77
2022/12/10 05:41:00;;;;;;;10.20;7.03;;;10.80;59.60;;;;;;5055348;28;20033;-77
2022/12/10 05:43:26;;;;;;;9.52;6.78;;;10.80;59.60;;;;;;5055360;28;20070;-77
2022/12/10 05:45:52;;;;;;;8.80;6.70;;;10.80;59.60;;;;;;5055268;28;20025;-77
2022/12/10 05:48:18;;;;;;;9.63;6.82;;;10.90;59.60;;;;;;5055310;28;20047;-76
2022/12/10 05:50:43;;;;;;;7.97;6.60;;;10.90;59.60;;;;;;5055208;28;20033;-77
2022/12/10 05:53:09;;;;;;;8.10;5.97;;;;;;;;;;5055149;28;20180;-77
2022/12/10 05:55:35;;;;;;;9.48;6.75;;;10.90;59.10;;;;;;5055240;28;20078;-77
2022/12/10 05:58:01;;;;;;;8.27;6.28;;;10.90;59.60;;;;;;5055046;28;20029;-77
2022/12/10 06:00:27;;;;;;;8.93;7.00;;;10.90;59.50;;;;;;5054991;28;20466;-77
2022/12/10 06:02:54;;;;;;;9.02;6.22;;;10.90;59.50;;;;;;5054989;28;20376;-77
2022/12/10 06:05:20;;;;;;;10.18;6.93;;;10.90;60.20;;;;;;5053778;28;20029;-78
2022/12/10 06:07:46;;;;;;;9.13;6.43;;;10.90;59.50;;;;;;5053623;28;20029;-78
2022/12/10 06:10:11;;;;;;;9.85;7.22;;;10.90;59.60;;;;;;5055131;28;20021;-78
2022/12/10 06:12:37;;;;;;;8.93;6.22;;;10.90;59.60;;;;;;5054920;28;20086;-77
2022/12/10 06:15:04;;;;;;;9.23;6.80;;;10.80;59.60;;;;;;5054803;28;20548;-77
2022/12/10 06:17:30;;;;;;;7.93;6.18;;;10.80;59.70;;;;;;5054809;28;20044;-77
2022/12/10 06:19:56;;;;;;;7.22;5.47;;;10.80;59.70;;;;;;5054641;28;20467;-78
2022/12/10 06:22:21;;;;;;;8.80;6.22;;;10.80;59.60;;;;;;5053438;28;20036;-76
2022/12/10 06:24:47;;;;;;;7.90;6.05;;;10.80;59.50;;;;;;5054566;28;20033;-74
2022/12/10 06:27:12;;;;;;;7.90;5.82;;;10.80;59.50;;;;;;5054369;28;20045;-75
2022/12/10 06:29:38;;;;;;;8.55;6.47;;;10.80;59.60;;;;;;5054744;28;20108;-75
2022/12/10 06:32:04;;;;;;;8.68;6.40;;;10.80;59.60;;;;;;5053164;28;20024;-75
2022/12/10 06:34:29;;;;;;;8.68;6.30;;;10.80;59.50;;;;;;5054404;28;20052;-75
2022/12/10 06:36:55;;;;;;;8.68;5.95;;;10.80;59.50;;;;;;5054459;28;20029;-74
2022/12/10 06:39:20;;;;;;;6.40;5.20;;;10.80;59.60;;;;;;5054222;28;20487;-75
2022/12/10 06:41:46;;;;;;;9.38;6.65;;;10.80;59.70;;;;;;5053434;28;20064;-75
2022/12/10 06:44:12;;;;;;;8.60;5.88;;;10.80;59.70;;;;;;5054211;28;20097;-75
2022/12/10 06:46:40;;;;;;;10.35;6.45;;;10.80;59.60;;;;;;5054348;28;20107;-75
2022/12/10 06:49:07;;;;;;;9.23;5.85;;;10.70;59.60;;;;;;5052884;28;20024;-75
2022/12/10 06:51:32;;;;;;;8.55;6.28;;;10.80;59.60;;;;;;5052868;28;20029;-75
2022/12/10 06:53:58;;;;;;;10.55;7.18;;;10.80;59.60;;;;;;5054010;28;20063;-75
2022/12/10 06:56:24;;;;;;;8.23;5.97;;;10.80;59.70;;;;;;5052827;28;20472;-74
2022/12/10 06:58:49;;;;;;;8.63;5.82;;;10.80;59.60;;;;;;5054083;28;20068;-76
2022/12/10 07:01:21;;;;;;;8.27;5.85;;;10.60;72.70;;;;;;5052590;28;20491;-76
2022/12/10 07:03:49;;;;;;;9.50;6.47;;;10.70;59.60;;;;;;5053951;28;20025;-76
2022/12/10 07:06:15;;;;;;;8.20;6.05;;;10.70;59.60;;;;;;5053800;28;20062;-76
2022/12/10 07:08:40;;;;;;;7.97;5.50;;;10.70;59.70;;;;;;5052502;28;20021;-76
2022/12/10 07:11:08;;;;;;;7.75;5.72;;;10.70;60.40;;;;;;5052382;28;20021;-75
2022/12/10 07:13:35;;;;;;;8.18;5.90;;;10.60;59.60;;;;;;5052776;28;20048;-76
2022/12/10 07:16:00;;;;;;;7.90;5.70;;;10.70;59.70;;;;;;5053742;28;20025;-76
2022/12/10 07:18:27;;;;;;;8.50;5.97;;;10.70;59.70;;;;;;5053541;28;20032;-76
2022/12/10 07:20:53;;;;;;;10.15;6.60;;;10.60;59.70;;;;;;5052198;28;20033;-76
2022/12/10 07:23:19;;;;;;;7.95;6.05;;;10.60;59.60;;;;;;5053478;28;20017;-76
2022/12/10 07:25:45;;;;;;;8.23;6.18;;;10.70;59.70;;;;;;5053344;28;20032;-76
2022/12/10 07:28:10;;;;;;;8.40;6.38;;;10.70;59.60;;;;;;5053227;28;20049;-76
2022/12/10 07:30:36;;;;;;;8.57;6.13;;;10.60;59.70;;;;;;5053392;28;20021;-75
2022/12/10 07:33:01;;;;;;;9.65;6.63;;;10.60;59.70;;;;;;5052029;28;20055;-77
2022/12/10 07:35:27;;;;;;;8.88;5.80;;;10.60;59.80;;;;;;5053185;28;20021;-77
2022/12/10 07:37:53;;;;;;;9.30;6.65;;;10.60;59.70;;;;;;5051956;28;20035;-77
2022/12/10 07:40:18;;;;;;;9.93;7.15;;;10.70;59.70;;;;;;5051705;28;20111;-78
2022/12/10 07:42:44;;;;;;;11.65;7.00;;;10.60;59.60;;;;;;5051927;28;20017;-79
2022/12/10 07:45:10;;;;;;;14.48;7.75;;;10.60;59.60;;;;;;5051850;28;20025;-79
2022/12/10 07:47:39;;;;;;;12.32;8.05;;;10.60;59.40;;;;;;5053071;28;20057;-78
2022/12/10 07:50:05;;;;;;;15.30;8.70;;;10.70;59.60;;;;;;5051829;28;20112;-78
2022/12/10 07:52:31;;;;;;;12.55;7.50;;;10.60;59.80;;;;;;5053020;28;20077;-79
2022/12/10 07:54:56;;;;;;;14.32;8.27;;;10.50;60.00;;;;;;5052812;28;20032;-78
2022/12/10 07:57:22;;;;;;;12.05;8.30;;;10.50;60.00;;;;;;5052676;28;20060;-78
2022/12/10 07:59:48;;;;;;;14.52;8.43;;;10.50;60.00;;;;;;5051313;28;20025;-78
2022/12/10 08:02:13;;;;;;;15.15;8.52;;;10.50;60.10;;;;;;5051296;28;20032;-78
2022/12/10 08:04:39;;;;;;;13.63;7.82;;;10.50;60.00;;;;;;5053001;28;20020;-76
2022/12/10 08:07:04;;;;;;;17.50;8.27;;;10.60;60.00;;;;;;5052767;28;20033;-75
2022/12/10 08:09:30;;;;;;;15.77;8.60;;;10.50;59.90;;;;;;5051204;28;20372;-76
2022/12/10 08:11:56;;;;;;;12.18;8.18;;;10.60;59.80;;;;;;5052513;28;20386;-76
2022/12/10 08:14:22;;;;;;;15.18;8.00;;;10.70;59.70;;;;;;5052398;28;20100;-76
2022/12/10 08:16:47;;;;;;;13.25;7.75;;;10.70;59.70;;;;;;5051091;28;20040;-76
2022/12/10 08:19:13;;;;;;;11.18;7.65;;;10.70;59.60;;;;;;5052355;28;20032;-76
2022/12/10 08:21:38;;;;;;;13.73;8.45;;;10.70;60.00;;;;;;5052260;28;20113;-76
2022/12/10 08:24:05;;;;;;;13.45;8.02;;;10.70;59.60;;;;;;5051134;28;20458;-73
2022/12/10 08:26:32;;;;;;;13.57;8.13;;;10.70;59.80;;;;;;5052185;28;20037;-74
2022/12/10 08:28:59;;;;;;;15.02;9.10;;;10.60;60.10;;;;;;5051025;28;20032;-73
2022/12/10 08:31:26;;;;;;;16.55;9.32;;;10.60;60.20;;;;;;5052116;28;20108;-74
2022/12/10 08:33:52;;;;;;;14.65;8.73;;;10.60;60.40;;;;;;5052211;28;20036;-74
2022/12/10 08:36:19;;;;;;;16.90;9.45;;;10.60;60.50;;;;;;5052237;28;20067;-74
2022/12/10 08:38:45;;;;;;;16.27;8.38;;;10.60;60.50;;;;;;5050902;28;20049;-76
2022/12/10 08:41:15;;;;;;;17.60;9.10;;;10.60;60.60;;;;;;5052269;28;20064;-76
2022/12/10 08:43:41;;;;;;;18.15;10.30;;;10.70;60.70;;;;;;5052203;28;20391;-74
2022/12/10 08:46:07;;;;;;;17.27;9.93;;;10.70;60.80;;;;;;5052338;28;20029;-74
2022/12/10 08:48:34;;;;;;;14.45;8.77;;;10.70;60.70;;;;;;5052084;28;20032;-76
2022/12/10 08:50:59;;;;;;;17.80;10.25;;;10.70;60.70;;;;;;5052178;28;20021;-74
2022/12/10 08:53:25;;;;;;;14.85;9.65;;;10.70;60.80;;;;;;5050763;28;20410;-74
2022/12/10 08:55:52;;;;;;;17.23;9.90;;;10.80;60.60;;;;;;5050736;28;20017;-76
2022/12/10 08:58:18;;;;;;;17.42;10.45;;;10.80;60.70;;;;;;5052188;28;20021;-76
2022/12/10 09:00:44;;;;;;;18.45;10.27;;;10.80;60.50;;;;;;5052017;28;20395;-76
2022/12/10 09:03:09;;;;;;;17.30;10.90;;;10.80;60.70;;;;;;5052157;28;20032;-76
2022/12/10 09:05:36;;;;;;;17.60;10.00;;;10.80;60.60;;;;;;5055118;28;20029;-76
2022/12/10 09:08:01;;;;;;;16.60;9.05;;;10.80;60.70;;;;;;5056093;28;20135;-76
2022/12/10 09:10:27;;;;;;;16.25;9.50;;;10.80;60.70;;;;;;5056002;28;20092;-76
2022/12/10 09:12:52;;;;;;;16.40;9.68;;;10.80;60.60;;;;;;5056217;28;20036;-76
2022/12/10 09:15:18;;;;;;;16.10;9.15;;;10.80;60.80;;;;;;5055996;28;20025;-75
2022/12/10 09:17:44;;;;;;;17.30;10.27;;;10.80;60.80;;;;;;5054584;28;20028;-77
2022/12/10 09:20:10;;;;;;;17.02;10.15;;;10.80;60.90;;;;;;5055799;28;20427;-77
2022/12/10 09:22:36;;;;;;;18.02;10.88;;;10.80;60.70;;;;;;5054511;28;20029;-77
2022/12/10 09:25:04;;;;;;;19.55;11.05;;;10.80;60.70;;;;;;5054621;28;20051;-75
2022/12/10 09:27:31;;;;;;;16.02;9.63;;;10.80;60.60;;;;;;5054210;28;20128;-75
2022/12/10 09:29:56;;;;;;;17.90;10.90;;;10.90;60.60;;;;;;5055593;28;20063;-75
2022/12/10 09:32:22;;;;;;;18.38;10.35;;;10.90;60.40;;;;;;5055632;28;20450;-74
2022/12/10 09:34:51;;;;;;;17.90;10.73;;;10.90;59.80;;;;;;5055647;28;20028;-75
2022/12/10 09:37:17;;;;;;;17.40;10.95;;;10.90;60.30;;;;;;5054210;28;20472;-75
2022/12/10 09:39:42;;;;;;;18.80;11.90;;;10.90;60.20;;;;;;5054037;28;20028;-75
2022/12/10 09:42:46;;;;;;;18.38;10.43;;;11.00;60.30;;;;;;5054200;28;20075;-74
2022/12/10 09:45:34;;;;;;;19.42;10.80;;;10.90;60.30;;;;;;5055373;28;20475;-77
2022/12/10 09:48:10;;;;;;;20.50;11.52;;;11.00;60.30;;;;;;5055375;28;20032;-77
2022/12/10 09:51:05;;;;;;;20.52;12.23;;;11.00;60.20;;;;;;5055585;28;20021;-76
2022/12/10 09:53:32;;;;;;;19.80;11.05;;;11.00;60.40;;;;;;5054818;28;20033;-77
2022/12/10 09:55:58;;;;;;;19.25;11.10;;;11.00;60.40;;;;;;5055141;28;20025;-77
2022/12/10 09:58:26;;;;;;;20.67;10.95;;;11.00;60.30;;;;;;5053794;28;20032;-77
2022/12/10 10:01:00;;;;;;;20.77;11.50;;;11.00;60.30;;;;;;5055052;28;20045;-78
2022/12/10 10:03:26;;;;;;;20.52;11.50;;;11.00;60.40;;;;;;5055094;28;20021;-77
2022/12/10 10:05:54;;;;;;;23.00;12.68;;;11.00;60.30;;;;;;5054902;28;20036;-75
2022/12/10 10:08:40;;;;;;;25.92;13.25;;;11.00;60.20;;;;;;5054916;28;20109;-75
2022/12/10 10:11:10;;;;;;;24.98;12.40;;;11.00;60.60;;;;;;5054394;28;20070;-76
2022/12/10 10:13:44;;;;;;;24.98;12.63;;;11.10;60.20;;;;;;5054798;28;20020;-75
2022/12/10 10:16:15;;;;;;;32.63;12.52;;;11.10;60.00;;;;;;5052293;28;20017;-75
2022/12/10 10:18:50;;;;;;;25.40;13.35;;;11.10;60.10;;;;;;5053494;28;20033;-77
2022/12/10 10:21:23;;;;;;;28.80;13.52;;;11.10;60.20;;;;;;5053731;28;20074;-77
2022/12/10 10:23:50;;;;;;;29.20;13.95;;;11.10;60.10;;;;;;5054543;28;20025;-78
2022/12/10 10:26:16;;;;;;;24.63;12.35;;;11.10;60.10;;;;;;5054438;28;20044;-77
2022/12/10 10:28:43;;;;;;;24.67;12.70;;;11.10;60.20;;;;;;5054517;28;20021;-77
2022/12/10 10:31:24;;;;;;;26.83;13.73;;;11.10;60.20;;;;;;5054516;28;20478;-78
2022/12/10 10:33:56;;;;;;;29.70;14.77;;;11.10;59.90;;;;;;5053160;28;20029;-77
2022/12/10 10:36:28;;;;;;;32.60;15.35;;;11.20;60.00;;;;;;5054479;28;20115;-77
2022/12/10 10:38:54;;;;;;;30.83;15.18;;;11.20;60.80;;;;;;5053293;28;20029;-77
2022/12/10 10:41:21;;;;;;;24.92;13.65;;;11.20;60.10;;;;;;5054242;28;20441;-78
2022/12/10 10:43:59;;;;;;;27.55;13.45;;;11.10;60.20;;;;;;5052992;28;20051;-77
2022/12/10 10:46:25;;;;;;;29.88;14.10;;;11.20;60.20;;;;;;5054204;28;20037;-78
2022/12/10 10:48:51;;;;;;;28.13;14.38;;;11.20;60.50;;;;;;5054140;28;20032;-78
2022/12/10 10:51:24;;;;;;;24.65;13.48;;;11.10;60.40;;;;;;5054094;28;20096;-78
2022/12/10 10:53:52;;;;;;;29.33;13.68;;;11.10;60.50;;;;;;5052701;28;20029;-77
2022/12/10 10:56:39;;;;;;;24.33;12.88;;;11.20;60.60;;;;;;5052673;28;20021;-77
2022/12/10 10:59:07;;;;;;;28.17;14.43;;;11.20;60.60;;;;;;5054004;28;20025;-77
2022/12/10 11:01:44;;;;;;;25.92;13.23;;;11.20;60.40;;;;;;5053913;28;20061;-78
2022/12/10 11:04:10;;;;;;;28.92;14.02;;;11.20;60.60;;;;;;5052593;28;20025;-77
2022/12/10 11:06:35;;;;;;;28.88;14.75;;;11.20;60.40;;;;;;5053823;28;20063;-77
2022/12/10 11:09:04;;;;;;;24.58;13.25;;;11.20;60.30;;;;;;5053708;28;20384;-77
2022/12/10 11:11:36;;;;;;;27.40;13.35;;;11.20;60.40;;;;;;5053720;28;20079;-77
2022/12/10 11:14:31;;;;;;;26.83;13.63;;;11.10;75.30;;;;;;5053648;28;20029;-77
2022/12/10 11:17:09;;;;;;;28.63;13.82;;;11.20;60.40;;;;;;5053680;28;20040;-78
2022/12/10 11:19:41;;;;;;;30.60;14.82;;;11.20;60.50;;;;;;5053881;28;20029;-77
2022/12/10 11:22:22;;;;;;;26.58;13.95;;;11.20;60.40;;;;;;5053429;28;20395;-77
2022/12/10 11:24:49;;;;;;;24.88;13.75;;;11.20;60.60;;;;;;5053510;28;20028;-77
2022/12/10 11:27:48;;;;;;;25.23;13.40;;;11.20;60.60;;;;;;5052823;28;20447;-77
2022/12/10 11:30:22;;;;;;;25.98;13.30;;;11.20;60.50;;;;;;5053457;28;20053;-77
2022/12/10 11:33:05;;;;;;;30.38;14.38;;;11.10;60.60;;;;;;5053353;28;20021;-78
2022/12/10 11:35:39;;;;;;;30.00;14.98;;;11.10;60.80;;;;;;5053261;28;20034;-78
2022/12/10 11:38:17;;;;;;;28.58;13.20;;;11.20;60.50;;;;;;5053283;28;20487;-78
2022/12/10 11:40:49;;;;;;;29.30;14.68;;;11.20;60.60;;;;;;5053037;28;20115;-77
2022/12/10 11:43:45;;;;;;;27.35;13.18;;;11.20;60.70;;;;;;5053064;28;20039;-77
2022/12/10 11:46:13;;;;;;;26.50;13.77;;;11.20;60.80;;;;;;5053017;28;20040;-77
2022/12/10 11:48:52;;;;;;;27.20;14.80;;;11.20;60.90;;;;;;5053008;28;20487;-77
2022/12/10 11:51:32;;;;;;;28.75;14.90;;;11.10;60.70;;;;;;5053018;28;20025;-77
2022/12/10 11:54:00;;;;;;;;;;;11.10;60.80;;;;;;5053336;28;20017;-77
2022/12/10 11:56:34;;;;;;;26.05;14.20;;;11.20;60.80;;;;;;5052767;28;19905;-77
2022/12/10 11:59:07;;;;;;;26.00;14.00;;;11.00;61.30;;;;;;5052800;28;20112;-77
2022/12/10 12:01:51;;;;;;;28.40;15.20;;;11.10;60.70;;;;;;5052901;28;20082;-77
2022/12/10 12:04:38;;;;;;;30.38;14.57;;;11.20;60.50;;;;;;5052641;28;20025;-77
2022/12/10 12:07:22;;;;;;;29.30;15.18;;;11.20;60.20;;;;;;5052763;28;20082;-77
2022/12/10 12:10:07;;;;;;;24.95;12.68;;;11.20;60.40;;;;;;5052781;28;20028;-77
2022/12/10 12:13:00;;;;;;;33.72;15.38;;;11.10;60.30;;;;;;5052513;28;20024;-77
2022/12/10 12:15:31;;;;;;;30.83;14.32;;;11.10;60.50;;;;;;5052432;28;20422;-77
2022/12/10 12:18:21;;;;;;;29.42;15.10;;;11.20;60.60;;;;;;5052499;28;20375;-77
2022/12/10 12:20:53;;;;;;;34.20;15.90;;;11.10;60.40;;;;;;5052403;28;20078;-77
2022/12/10 12:23:37;;;;;;;31.08;14.90;;;11.20;59.70;;;;;;5052517;28;20024;-77
2022/12/10 12:26:10;;;;;;;30.05;15.20;;;11.20;60.20;;;;;;5052422;28;20033;-77
2022/12/10 12:28:43;;;;;;;28.60;14.68;;;11.20;60.20;;;;;;5052434;28;20029;-76
2022/12/10 12:31:18;;;;;;;36.53;14.90;;;11.20;60.10;;;;;;5052357;28;20025;-77
2022/12/10 12:34:01;;;;;;;29.48;14.25;;;11.20;60.40;;;;;;5052305;28;20100;-76
2022/12/10 12:36:36;;;;;;;32.20;15.43;;;11.20;60.20;;;;;;5052145;28;20025;-75
2022/12/10 12:39:34;;;;;;;33.58;15.07;;;10.60;59.90;;;;;;5051581;28;20032;-76
2022/12/10 12:42:23;;;;;;;30.83;15.30;;;11.20;60.30;;;;;;5052044;28;20041;-76
2022/12/10 12:44:57;;;;;;;41.58;14.88;;;11.20;60.30;;;;;;5052315;28;20024;-76
2022/12/10 12:47:34;;;;;;;29.65;14.93;;;11.20;60.40;;;;;;5052234;28;20029;-76
2022/12/10 12:50:04;;;;;;;33.90;15.48;;;11.10;60.30;;;;;;5052151;28;20059;-76
2022/12/10 12:52:50;;;;;;;;;;;11.10;60.30;;;;;;5052433;28;20025;-76
2022/12/10 12:55:28;;;;;;;26.33;13.93;;;12.20;61.00;;;;;;5052081;28;19909;-76